Itaja, Brazil
Current Conditions -  °F | °C
As of 1:00 PM on Friday 28 Nov 2014 (Local Time) from SBSR Reporting Station
Overcast Overcast  
Wind Chill: 79°   Ceiling: 2000
Heat Index: 81°   Visibility: 6mi
Dew Point: 66°   Wind: 5mph
Humidity: 65%   Direction: 50°NE
Pressure: 30"   Gusts: NA
Location:  19.07°S, 51.54°W
Report Text: SBSR 281500Z 05004KT 9999 OVC020 26/19 Q1016
Loading
Personal Weather Stations






























Interactive Weather Map New forecast layout! Learn more

10-Day Weather Forecast

Advertisements
Track Severe Weather on mobile